Aeroporto :
LOGIN :

Iscrizione | Disclaimer

   EN    FR    IT 

 










Sommario :    VFR   VFR Marginale   IFR   IFR Intensivo   IFR Molto Intensivo
Visibilità : 
Base nubi : 
>= 8 km
>= 3000ft
5 / 8 km
1000 / 3000 ft
1500m / 5 km
500 / 1000 ft
800 / 1500m
200 / 500 ft
< 800m
< 200 ft
Simboli :   Temporali  Nebbia  Neve Forte  Precipitazioni Forti  Vento > 20 kt
SIGMETs :   Varie  Temporali  Ghiacco  Turbolenza  Onda orograficha  Ceneri Vulcaniche






- Altitudine del aeroporto : 512 ft
- Codice IATA : URO


LFOP - Rouen Vallée de Seine

ULTIMO METAR :
  • 270000Z AUTO 20016KT 9999 -DZ OVC012 09/08 Q1010

METARs OBSOLETI :
  • 262330Z AUTO 20015KT 9999 OVC011 09/08 Q1010
  • 262300Z AUTO 19015KT 9999 OVC011 09/08 Q1011
  • 262230Z AUTO 19014KT 9999 OVC010/// ///TCU 08/08 Q1011
  • 262200Z AUTO 19015KT 9999 -RA OVC009/// ///CB 08/08 Q1011

TAF TAF LFOP
Valido dal 26 a 18 ore il 27 a 18 ore UTC


261700Z 2618/2718 19008KT 9999 OVC015
TEMPO 2618/2623 20015G25KT 2000 DZRA BR OVC003
BECMG 2623/2702 OVC003
BECMG 2706/2708 BKN007
BECMG 2708/2711 SCT025
BECMG 2711/2714 4000 RA BKN010
ATIS : +33 2 35 80 80 34
Met : +33 2 32 86 52 80



MetMap, La meteo Aeronautica in un colpo d'occhio ! - Copyright ORBIFLY Dicembre 2007 - Disclaimer

ORBIFLY MET'MAP TEAM :

Programmazione e sviluppo : Alexandra Zaïnal
Concezione : Baudouin d'Aumeries
Aiuto per la programmazione : Marc-Olivier Méhu
Supporto tecnico e logistico : Manuel Goepfert
Aiuto per la traduzione : Arnaldo La Scala

Contatto : metmap@orbifly.com




FONTI E CREDITI :

   NOAA